createdAt,value
2022-10-19T00:01:16.304Z,69.05
2022-10-19T00:03:45.892Z,69.21
2022-10-19T00:06:18.179Z,68.95
2022-10-19T00:08:46.266Z,69.03
2022-10-19T00:11:13.722Z,69.04
2022-10-19T00:13:41.210Z,68.88
2022-10-19T00:16:15.005Z,68.47
2022-10-19T00:18:43.658Z,68.32
2022-10-19T00:21:13.711Z,68.22
2022-10-19T00:23:41.315Z,68.29
2022-10-19T00:26:08.817Z,68.19
2022-10-19T00:28:36.871Z,68.42
2022-10-19T00:31:10.418Z,68.20
2022-10-19T00:33:38.585Z,68.27
2022-10-19T00:36:06.855Z,68.01
2022-10-19T00:38:34.293Z,67.88
2022-10-19T00:41:02.607Z,68.01
2022-10-19T00:43:31.764Z,67.93
2022-10-19T00:45:59.355Z,67.93
2022-10-19T00:48:31.991Z,68.25
2022-10-19T00:51:00.588Z,67.94
2022-10-19T00:53:30.555Z,67.95
2022-10-19T00:56:00.536Z,68.16
2022-10-19T00:58:28.066Z,68.38
2022-10-19T01:00:55.666Z,68.19
2022-10-19T01:03:23.297Z,68.08
2022-10-19T01:05:51.434Z,68.43
2022-10-19T01:08:19.223Z,68.24
2022-10-19T01:10:58.674Z,68.26
2022-10-19T01:13:33.556Z,68.14
2022-10-19T01:16:26.859Z,68.10
2022-10-19T01:19:31.158Z,68.12
2022-10-19T01:22:32.515Z,68.43
2022-10-19T01:25:28.676Z,68.43
2022-10-19T01:28:14.588Z,68.14
2022-10-19T01:30:51.210Z,67.99
2022-10-19T01:33:40.558Z,67.72
2022-10-19T01:36:37.343Z,67.43
2022-10-19T01:39:10.638Z,67.73
2022-10-19T01:41:49.228Z,67.26
2022-10-19T01:44:28.131Z,67.49
2022-10-19T01:47:00.751Z,67.68
2022-10-19T01:49:45.548Z,67.81
2022-10-19T01:52:17.568Z,67.67
2022-10-19T01:54:52.990Z,67.23
2022-10-19T01:57:26.603Z,67.28
2022-10-19T01:59:55.763Z,67.33
2022-10-19T02:02:26.252Z,67.51
2022-10-19T02:04:57.099Z,67.55
2022-10-19T02:07:25.709Z,67.67
2022-10-19T02:09:53.226Z,67.54
2022-10-19T02:12:21.911Z,67.45
2022-10-19T02:14:52.359Z,67.50
2022-10-19T02:17:24.144Z,67.56
2022-10-19T02:19:53.919Z,67.36
2022-10-19T02:22:22.222Z,67.50
2022-10-19T02:24:49.959Z,67.62
2022-10-19T02:27:17.696Z,67.60
2022-10-19T02:29:45.343Z,67.49
2022-10-19T02:32:13.040Z,67.65
2022-10-19T02:34:41.449Z,67.50
2022-10-19T02:37:09.039Z,67.43
2022-10-19T02:39:38.255Z,67.36
2022-10-19T02:42:29.228Z,67.92
2022-10-19T02:45:06.966Z,67.20
2022-10-19T02:48:00.057Z,67.25
2022-10-19T02:50:27.897Z,67.20
2022-10-19T02:52:55.332Z,67.26
2022-10-19T02:55:22.827Z,67.33
2022-10-19T02:57:50.217Z,67.61
2022-10-19T03:00:17.885Z,67.51
2022-10-19T03:02:45.419Z,67.27
2022-10-19T03:05:12.791Z,67.35
2022-10-19T03:07:41.498Z,67.53
2022-10-19T03:10:09.421Z,67.65
2022-10-19T03:12:36.929Z,67.54
2022-10-19T03:15:05.101Z,67.62
2022-10-19T03:17:32.875Z,67.59
2022-10-19T03:20:00.598Z,67.57
2022-10-19T03:22:30.454Z,67.89
2022-10-19T03:24:57.898Z,67.72
2022-10-19T03:27:25.497Z,67.57
2022-10-19T03:29:53.051Z,67.79
2022-10-19T03:32:21.634Z,67.69
2022-10-19T03:34:49.118Z,67.66
2022-10-19T03:37:16.507Z,67.65
2022-10-19T03:39:43.891Z,67.72
2022-10-19T03:42:11.426Z,67.76
2022-10-19T03:44:38.800Z,67.76
2022-10-19T03:47:06.264Z,67.66
2022-10-19T03:49:34.678Z,67.65
2022-10-19T03:52:04.493Z,67.49
2022-10-19T03:54:31.915Z,67.14
2022-10-19T03:56:59.413Z,67.30
2022-10-19T03:59:27.159Z,67.10
2022-10-19T04:01:54.715Z,66.95
2022-10-19T04:04:22.123Z,66.82
2022-10-19T04:06:50.616Z,67.03
2022-10-19T04:09:20.063Z,66.95
2022-10-19T04:11:48.453Z,66.97
2022-10-19T04:14:26.881Z,67.11
2022-10-19T04:17:04.481Z,67.21
2022-10-19T04:19:32.095Z,67.36
2022-10-19T04:21:59.960Z,67.49
2022-10-19T04:24:28.025Z,67.37
2022-10-19T04:26:56.802Z,67.41
2022-10-19T04:29:29.496Z,67.55
2022-10-19T04:31:59.740Z,67.88
2022-10-19T04:34:27.447Z,67.87
2022-10-19T04:36:55.297Z,68.17
2022-10-19T04:39:22.865Z,68.18
2022-10-19T04:41:50.259Z,68.35
2022-10-19T04:44:17.790Z,68.41
2022-10-19T04:46:45.265Z,68.63
2022-10-19T04:49:16.383Z,68.77
2022-10-19T04:51:47.001Z,68.69
2022-10-19T04:54:14.405Z,68.96
2022-10-19T04:56:41.909Z,69.06
2022-10-19T04:59:10.458Z,69.28
2022-10-19T05:01:40.427Z,69.29
2022-10-19T05:04:10.125Z,69.26
2022-10-19T05:06:38.090Z,69.20
2022-10-19T05:09:05.527Z,69.59
2022-10-19T05:11:33.075Z,69.53
2022-10-19T05:14:00.471Z,69.66
2022-10-19T05:16:27.999Z,69.79
2022-10-19T05:18:56.873Z,69.76
2022-10-19T05:21:27.237Z,69.83
2022-10-19T05:23:56.188Z,69.91
2022-10-19T05:26:26.016Z,69.76
2022-10-19T05:28:56.825Z,69.59
2022-10-19T05:31:27.683Z,69.74
2022-10-19T05:33:56.473Z,69.53
2022-10-19T05:36:26.357Z,68.96
2022-10-19T05:38:57.137Z,68.60
2022-10-19T05:41:25.867Z,68.65
2022-10-19T05:43:56.007Z,68.36
2022-10-19T05:46:24.933Z,68.39
2022-10-19T05:48:52.674Z,68.30
2022-10-19T05:51:22.737Z,68.65
2022-10-19T05:53:50.260Z,68.37
2022-10-19T05:56:20.340Z,68.10
2022-10-19T05:58:48.099Z,68.22
2022-10-19T06:01:18.971Z,68.41
2022-10-19T06:03:50.753Z,68.31
2022-10-19T06:06:18.797Z,68.06
2022-10-19T06:08:46.938Z,68.35
2022-10-19T06:11:34.005Z,68.48
2022-10-19T06:14:04.479Z,68.18
2022-10-19T06:16:32.585Z,68.29
2022-10-19T06:19:00.412Z,68.37
2022-10-19T06:21:30.078Z,68.70
2022-10-19T06:24:00.402Z,69.02
2022-10-19T06:26:29.050Z,69.00
2022-10-19T06:29:00.215Z,69.12
2022-10-19T06:31:30.275Z,69.30
2022-10-19T06:33:57.916Z,69.58
2022-10-19T06:36:29.300Z,70.67
2022-10-19T06:38:56.938Z,70.29
2022-10-19T06:41:24.379Z,70.47
2022-10-19T06:43:53.051Z,70.76
2022-10-19T06:46:23.560Z,71.37
2022-10-19T06:48:55.001Z,71.60
2022-10-19T06:51:23.314Z,71.31
2022-10-19T06:53:52.921Z,71.66
2022-10-19T06:56:25.058Z,71.92
2022-10-19T06:58:52.971Z,72.01
2022-10-19T07:01:20.578Z,72.25
2022-10-19T07:03:48.061Z,72.17
2022-10-19T07:06:15.527Z,72.40
2022-10-19T07:08:44.003Z,72.44
2022-10-19T07:11:15.319Z,72.78
2022-10-19T07:13:42.875Z,72.73
2022-10-19T07:16:16.169Z,73.22
2022-10-19T07:18:47.755Z,73.15
2022-10-19T07:21:17.321Z,73.25
2022-10-19T07:23:47.191Z,73.21
2022-10-19T07:26:23.588Z,73.49
2022-10-19T07:28:51.337Z,73.23
2022-10-19T07:31:22.665Z,73.35
2022-10-19T07:33:58.936Z,73.99
2022-10-19T07:36:28.020Z,73.45
2022-10-19T07:38:55.635Z,73.60
2022-10-19T07:41:25.574Z,73.79
2022-10-19T07:43:53.942Z,73.51
2022-10-19T07:46:23.691Z,73.88
2022-10-19T07:48:51.499Z,73.65
2022-10-19T07:51:20.215Z,73.64
2022-10-19T07:53:48.691Z,73.66
2022-10-19T07:56:21.897Z,73.91
2022-10-19T07:58:54.757Z,74.03
2022-10-19T08:01:24.859Z,73.59
2022-10-19T08:06:41.658Z,73.20
2022-10-19T08:09:09.199Z,73.35
2022-10-19T08:11:36.866Z,73.54
2022-10-19T08:14:04.458Z,73.58
2022-10-19T08:16:44.579Z,73.80
2022-10-19T08:19:16.215Z,73.64
2022-10-19T08:22:26.683Z,73.54
2022-10-19T08:25:31.633Z,73.68
2022-10-19T08:29:04.188Z,72.67
2022-10-19T08:32:49.722Z,73.42
2022-10-19T08:36:44.214Z,73.58
2022-10-19T08:50:59.625Z,72.63
2022-10-19T08:53:42.460Z,73.21
2022-10-19T08:56:26.783Z,73.20
2022-10-19T08:59:11.845Z,73.15
2022-10-19T09:10:38.804Z,72.78
2022-10-19T09:14:04.640Z,73.03
2022-10-19T09:17:14.484Z,72.87
2022-10-19T09:19:42.454Z,72.81
2022-10-19T09:22:43.744Z,73.46
2022-10-19T09:25:19.591Z,73.56
2022-10-19T09:27:53.190Z,73.26
2022-10-19T09:30:23.118Z,73.13
2022-10-19T09:33:02.722Z,73.32
2022-10-19T09:35:39.179Z,73.09
2022-10-19T09:38:07.858Z,73.04
2022-10-19T09:54:16.049Z,72.81
2022-10-19T09:56:53.803Z,73.09
2022-10-19T09:59:23.645Z,73.13
2022-10-19T10:06:32.252Z,72.98
2022-10-19T10:13:37.496Z,73.21
2022-10-19T10:16:08.311Z,72.96
2022-10-19T10:18:39.400Z,72.90
2022-10-19T10:24:34.238Z,72.68
2022-10-19T10:27:06.596Z,72.88
2022-10-19T10:29:39.208Z,72.76
2022-10-19T10:32:09.028Z,72.82
2022-10-19T10:34:51.814Z,73.42
2022-10-19T10:38:06.260Z,73.67
2022-10-19T10:40:49.072Z,73.05
2022-10-19T10:43:33.763Z,73.13
2022-10-19T10:46:24.707Z,74.26
2022-10-19T10:49:00.266Z,73.19
2022-10-19T10:51:43.008Z,73.44
2022-10-19T10:54:17.191Z,73.61
2022-10-19T10:57:06.267Z,73.82
2022-10-19T10:59:45.900Z,73.70
2022-10-19T11:02:28.527Z,73.00
2022-10-19T11:05:10.806Z,73.25
2022-10-19T11:07:45.087Z,72.56
2022-10-19T11:10:30.151Z,72.80
2022-10-19T11:13:18.914Z,72.39
2022-10-19T11:16:18.907Z,71.66
2022-10-19T11:18:55.493Z,70.93
2022-10-19T11:21:35.349Z,69.45
2022-10-19T11:24:41.172Z,68.22
2022-10-19T11:27:21.907Z,67.79
2022-10-19T11:29:51.995Z,67.70
2022-10-19T11:32:19.423Z,67.52
2022-10-19T11:35:07.209Z,66.99
2022-10-19T11:37:49.707Z,66.68
2022-10-19T11:40:54.277Z,67.74
2022-10-19T11:43:39.626Z,67.94
2022-10-19T11:46:36.967Z,68.30
2022-10-19T11:49:31.694Z,66.47
2022-10-19T11:52:36.898Z,67.41
2022-10-19T11:55:41.247Z,66.84
2022-10-19T11:58:39.758Z,66.68
2022-10-19T12:01:06.970Z,66.94
2022-10-19T12:04:20.271Z,67.30
2022-10-19T12:07:29.307Z,67.23
2022-10-19T12:10:05.348Z,67.18
2022-10-19T12:13:33.981Z,68.08
2022-10-19T12:16:03.930Z,67.89
2022-10-19T12:18:51.887Z,67.59
2022-10-19T12:21:22.493Z,67.58
2022-10-19T12:23:51.452Z,67.71
2022-10-19T12:26:30.162Z,67.86
2022-10-19T12:29:07.431Z,67.75
2022-10-19T12:31:36.181Z,67.80
2022-10-19T12:34:35.612Z,68.14
2022-10-19T12:37:12.827Z,68.31
2022-10-19T12:39:58.847Z,68.35
2022-10-19T12:42:53.711Z,68.09
2022-10-19T12:45:26.894Z,67.94
2022-10-19T12:48:12.492Z,67.95
2022-10-19T12:50:48.930Z,68.11
2022-10-19T12:53:40.110Z,69.38
2022-10-19T12:56:24.334Z,68.40
2022-10-19T12:58:54.550Z,67.87
2022-10-19T13:01:28.265Z,68.02
2022-10-19T13:04:19.522Z,67.72
2022-10-19T13:07:44.938Z,68.14
2022-10-19T13:10:21.041Z,67.69
2022-10-19T13:12:49.075Z,67.39
2022-10-19T13:15:42.505Z,67.21
2022-10-19T13:18:34.221Z,66.64
2022-10-19T13:21:03.529Z,67.05
2022-10-19T13:23:31.213Z,66.92
2022-10-19T13:26:24.145Z,67.51
2022-10-19T13:28:55.917Z,66.93
2022-10-19T13:31:27.054Z,66.98
2022-10-19T13:33:55.055Z,67.45
2022-10-19T13:36:24.519Z,67.39
2022-10-19T13:39:02.794Z,67.10
2022-10-19T13:41:39.191Z,66.82
2022-10-19T13:44:21.653Z,67.12
2022-10-19T13:47:02.774Z,67.37
2022-10-19T13:49:58.236Z,67.20
2022-10-19T13:52:43.485Z,67.58
2022-10-19T13:55:23.473Z,67.47
2022-10-19T13:58:14.239Z,67.79
2022-10-19T14:01:01.122Z,68.04
2022-10-19T14:04:05.845Z,67.60
2022-10-19T14:06:56.635Z,67.15
2022-10-19T14:09:45.646Z,67.45
2022-10-19T14:12:22.467Z,67.52
2022-10-19T14:23:52.555Z,66.57
2022-10-19T14:34:16.404Z,67.32
2022-10-19T14:37:49.486Z,67.60
2022-10-19T14:41:48.789Z,67.50
2022-10-19T14:48:50.017Z,66.91
2022-10-19T14:51:45.336Z,67.22
2022-10-19T14:54:30.291Z,67.21
2022-10-19T14:57:06.695Z,67.07
2022-10-19T14:59:55.614Z,66.86
2022-10-19T15:02:29.081Z,67.03
2022-10-19T15:04:59.773Z,67.17
2022-10-19T15:07:48.092Z,67.34
2022-10-19T15:10:20.742Z,67.00
2022-10-19T15:12:51.012Z,67.31
2022-10-19T15:15:27.906Z,67.09
2022-10-19T15:18:03.291Z,67.41
2022-10-19T15:20:43.902Z,67.58
2022-10-19T15:23:40.127Z,67.90
2022-10-19T15:26:29.506Z,68.20
2022-10-19T15:29:09.630Z,67.74
2022-10-19T15:31:37.163Z,67.47
2022-10-19T15:34:05.477Z,67.66
2022-10-19T15:36:33.529Z,67.82
2022-10-19T15:39:24.712Z,68.27
2022-10-19T15:41:52.838Z,68.10
2022-10-19T15:44:42.514Z,68.67
2022-10-19T15:47:23.054Z,68.37
2022-10-19T15:50:02.061Z,68.09
2022-10-19T15:52:34.712Z,68.10
2022-10-19T15:55:02.594Z,68.14
2022-10-19T15:57:36.447Z,67.94
2022-10-19T16:00:16.243Z,68.37
2022-10-19T16:02:46.083Z,68.25
2022-10-19T16:05:13.588Z,68.34
2022-10-19T16:07:42.036Z,68.35
2022-10-19T16:10:17.089Z,68.16
2022-10-19T16:12:44.925Z,68.23
2022-10-19T16:15:16.465Z,68.29
2022-10-19T16:17:47.201Z,68.05
2022-10-19T16:20:15.494Z,68.12
2022-10-19T16:22:46.944Z,68.05
2022-10-19T16:25:14.838Z,67.91
2022-10-19T16:27:42.439Z,67.98
2022-10-19T16:30:14.002Z,68.05
2022-10-19T16:35:42.215Z,68.03
2022-10-19T16:38:37.648Z,67.77
2022-10-19T16:41:56.427Z,67.62
2022-10-19T16:45:04.444Z,67.68
2022-10-19T16:48:11.714Z,67.14
2022-10-19T16:51:28.744Z,67.22
2022-10-19T16:54:24.085Z,66.78
2022-10-19T16:57:09.760Z,67.11
2022-10-19T16:59:37.906Z,67.23
2022-10-19T17:02:05.400Z,67.19
2022-10-19T17:04:42.038Z,67.12
2022-10-19T17:07:24.522Z,67.45
2022-10-19T17:22:08.091Z,69.58
2022-10-19T17:25:25.073Z,68.83
2022-10-19T17:33:01.029Z,69.49
2022-10-19T17:35:52.236Z,69.38
2022-10-19T17:38:38.657Z,69.22
2022-10-19T17:41:33.681Z,69.10
2022-10-19T17:44:10.468Z,69.11
2022-10-19T17:46:38.395Z,69.14
2022-10-19T17:52:15.565Z,69.17
2022-10-19T17:54:54.400Z,69.17
2022-10-19T17:57:30.564Z,69.03
2022-10-19T17:59:58.058Z,69.07
2022-10-19T18:02:25.557Z,69.06
2022-10-19T18:04:53.170Z,68.81
2022-10-19T18:07:22.123Z,68.88
2022-10-19T18:09:49.581Z,68.78
2022-10-19T18:12:16.979Z,68.90
2022-10-19T18:14:45.315Z,69.08
2022-10-19T18:17:12.845Z,69.04
2022-10-19T18:19:40.305Z,68.99
2022-10-19T18:22:07.783Z,68.82
2022-10-19T18:24:35.266Z,68.82
2022-10-19T18:27:02.842Z,68.86
2022-10-19T18:29:30.466Z,68.79
2022-10-19T18:31:58.213Z,68.72
2022-10-19T18:34:27.069Z,68.75
2022-10-19T18:36:55.074Z,68.81
2022-10-19T18:39:22.918Z,68.77
2022-10-19T18:41:56.921Z,68.81
2022-10-19T18:44:27.917Z,69.03
2022-10-19T18:46:57.214Z,69.35
2022-10-19T18:49:24.975Z,69.56
2022-10-19T18:51:55.367Z,69.91
2022-10-19T18:54:26.449Z,70.24
2022-10-19T18:56:55.071Z,70.45
2022-10-19T18:59:22.922Z,70.51
2022-10-19T19:01:50.597Z,70.59
2022-10-19T19:04:18.193Z,70.54
2022-10-19T19:06:45.625Z,70.45
2022-10-19T19:09:13.426Z,70.42
2022-10-19T19:11:41.339Z,70.36
2022-10-19T19:14:17.871Z,70.62
2022-10-19T19:16:45.631Z,70.34
2022-10-19T19:19:14.981Z,70.34
2022-10-19T19:21:44.520Z,70.21
2022-10-19T19:24:15.317Z,70.24
2022-10-19T19:26:46.823Z,70.46
2022-10-19T19:29:14.490Z,70.63
2022-10-19T19:31:42.073Z,70.59
2022-10-19T19:37:08.936Z,70.83
2022-10-19T19:39:39.802Z,70.99
2022-10-19T19:42:07.957Z,70.55
2022-10-19T19:44:35.367Z,70.59
2022-10-19T19:47:03.133Z,70.78
2022-10-19T19:49:42.220Z,70.91
2022-10-19T19:53:12.255Z,70.06
2022-10-19T19:56:59.986Z,70.40
2022-10-19T20:04:29.859Z,69.65
2022-10-19T20:07:40.503Z,69.57
2022-10-19T20:25:47.787Z,68.08
2022-10-19T20:28:39.923Z,67.96
2022-10-19T20:31:26.027Z,67.74
2022-10-19T20:33:59.093Z,67.61
2022-10-19T20:36:29.618Z,67.56
2022-10-19T20:38:58.802Z,67.44
2022-10-19T20:42:24.566Z,66.90
2022-10-19T20:44:54.734Z,67.01
2022-10-19T20:48:12.208Z,66.50
2022-10-19T20:51:44.401Z,67.28
2022-10-19T20:55:57.679Z,66.37
2022-10-19T21:03:09.087Z,66.07
2022-10-19T21:06:04.948Z,66.25
2022-10-19T21:08:34.417Z,66.32
2022-10-19T21:11:11.166Z,66.34
2022-10-19T21:13:38.699Z,66.40
2022-10-19T21:16:17.483Z,65.93
2022-10-19T21:18:46.951Z,66.12
2022-10-19T21:21:20.886Z,66.35
2022-10-19T21:23:50.742Z,66.44
2022-10-19T21:26:40.298Z,65.86
2022-10-19T21:29:09.752Z,66.23
2022-10-19T21:43:42.342Z,65.59
2022-10-19T21:46:15.063Z,65.57
2022-10-19T21:49:04.107Z,65.59
2022-10-19T21:52:16.129Z,65.69
2022-10-19T21:55:26.648Z,65.40
2022-10-19T21:58:36.148Z,65.07
2022-10-19T22:02:14.303Z,64.95
2022-10-19T22:05:01.722Z,64.89
2022-10-19T22:07:42.509Z,64.85
2022-10-19T22:10:25.107Z,64.90
2022-10-19T22:17:28.818Z,64.89
2022-10-19T22:19:59.128Z,65.01
2022-10-19T22:22:26.615Z,65.06
2022-10-19T22:25:12.293Z,64.99
2022-10-19T22:27:58.138Z,64.65
2022-10-19T22:30:28.250Z,64.84
2022-10-19T22:32:56.091Z,64.91
2022-10-19T22:35:38.690Z,64.89
2022-10-19T22:38:06.117Z,64.47
2022-10-19T22:40:33.613Z,64.56
2022-10-19T22:50:21.948Z,63.71
2022-10-19T22:52:49.423Z,64.03
2022-10-19T22:55:16.894Z,64.13
2022-10-19T22:57:45.329Z,64.04
2022-10-19T23:00:13.219Z,63.94
2022-10-19T23:02:40.726Z,64.11
2022-10-19T23:05:08.539Z,64.19
2022-10-19T23:07:38.282Z,64.18
2022-10-19T23:10:08.813Z,64.02
2022-10-19T23:12:36.336Z,63.46
2022-10-19T23:15:04.074Z,63.72
2022-10-19T23:17:31.559Z,63.49
2022-10-19T23:20:45.478Z,63.00
2022-10-19T23:23:56.190Z,63.35
2022-10-19T23:27:01.274Z,63.31
2022-10-19T23:30:02.253Z,63.25
2022-10-19T23:33:32.170Z,63.03
2022-10-19T23:36:13.085Z,62.69
2022-10-19T23:38:41.871Z,63.42
2022-10-19T23:42:20.739Z,63.12
2022-10-19T23:45:25.458Z,63.04
2022-10-19T23:48:10.444Z,63.15
2022-10-19T23:50:37.921Z,63.41
